createdAt,value
2024-03-14T00:00:24.232Z,11.43
2024-03-14T00:02:53.135Z,11.57
2024-03-14T00:05:21.407Z,10.90
2024-03-14T00:07:48.828Z,10.83
2024-03-14T00:10:16.045Z,11.33
2024-03-14T00:12:43.177Z,11.50
2024-03-14T00:15:12.933Z,11.93
2024-03-14T00:17:40.601Z,12.37
2024-03-14T00:20:10.045Z,13.07
2024-03-14T00:22:37.152Z,13.20
2024-03-14T00:25:04.420Z,13.60
2024-03-14T00:27:31.435Z,14.20
2024-03-14T00:29:58.432Z,14.33
2024-03-14T00:32:28.193Z,14.33
2024-03-14T00:34:55.228Z,14.57
2024-03-14T00:37:22.231Z,14.30
2024-03-14T00:39:49.249Z,15.53
2024-03-14T00:42:16.328Z,14.83
2024-03-14T00:44:43.795Z,15.07
2024-03-14T00:47:10.976Z,16.17
2024-03-14T00:49:39.698Z,15.53
2024-03-14T00:52:06.920Z,15.80
2024-03-14T00:54:34.938Z,15.83
2024-03-14T00:57:04.371Z,15.17
2024-03-14T00:59:31.916Z,15.17
2024-03-14T01:01:59.059Z,15.67
2024-03-14T01:04:26.076Z,15.73
2024-03-14T01:06:54.098Z,15.27
2024-03-14T01:09:26.377Z,16.23
2024-03-14T01:11:56.684Z,17.13
2024-03-14T01:14:23.734Z,16.40
2024-03-14T01:16:52.292Z,15.57
2024-03-14T01:19:19.776Z,17.27
2024-03-14T01:21:47.132Z,16.53
2024-03-14T01:24:15.049Z,14.73
2024-03-14T01:26:43.628Z,16.00
2024-03-14T01:29:12.323Z,16.83
2024-03-14T01:31:39.881Z,16.43
2024-03-14T01:34:07.119Z,15.77
2024-03-14T01:36:38.444Z,15.37
2024-03-14T01:39:12.395Z,17.03
2024-03-14T01:41:39.795Z,18.47
2024-03-14T01:44:06.827Z,16.80
2024-03-14T01:46:34.637Z,16.07
2024-03-14T01:49:03.280Z,16.70
2024-03-14T01:51:31.419Z,17.00
2024-03-14T01:54:00.798Z,17.33
2024-03-14T01:56:28.261Z,16.67
2024-03-14T01:58:56.075Z,16.63
2024-03-14T02:01:24.955Z,17.60
2024-03-14T02:04:08.791Z,17.77
2024-03-14T02:06:44.570Z,17.53
2024-03-14T02:09:11.698Z,17.77
2024-03-14T02:11:38.930Z,18.87
2024-03-14T02:14:07.940Z,18.80
2024-03-14T02:16:34.929Z,18.33
2024-03-14T02:19:02.003Z,19.53
2024-03-14T02:21:29.132Z,19.97
2024-03-14T02:23:56.285Z,20.47
2024-03-14T02:26:23.769Z,22.10
2024-03-14T02:28:51.540Z,23.47
2024-03-14T02:31:23.883Z,24.13
2024-03-14T02:33:51.272Z,25.33
2024-03-14T02:36:18.250Z,24.23
2024-03-14T02:38:45.373Z,23.07
2024-03-14T02:41:12.621Z,23.63
2024-03-14T02:43:39.548Z,23.20
2024-03-14T02:46:06.563Z,23.40
2024-03-14T02:48:33.542Z,25.63
2024-03-14T02:51:02.211Z,25.73
2024-03-14T02:53:30.582Z,24.80
2024-03-14T02:55:59.048Z,24.37
2024-03-14T02:58:26.303Z,24.07
2024-03-14T03:00:54.778Z,23.17
2024-03-14T03:03:22.773Z,26.27
2024-03-14T03:05:51.811Z,23.23
2024-03-14T03:08:18.819Z,23.53
2024-03-14T03:10:45.855Z,25.23
2024-03-14T03:13:12.810Z,23.60
2024-03-14T03:15:40.456Z,24.00
2024-03-14T03:18:09.107Z,25.40
2024-03-14T03:20:36.186Z,24.00
2024-03-14T03:23:10.473Z,24.60
2024-03-14T03:25:37.635Z,24.40
2024-03-14T03:28:11.514Z,24.20
2024-03-14T03:30:39.024Z,25.23
2024-03-14T03:33:07.550Z,22.30
2024-03-14T03:35:34.574Z,23.90
2024-03-14T03:38:01.669Z,22.90
2024-03-14T03:40:37.040Z,22.57
2024-03-14T03:43:04.438Z,22.60
2024-03-14T03:45:31.791Z,22.37
2024-03-14T03:47:59.072Z,23.33
2024-03-14T03:50:27.195Z,23.43
2024-03-14T03:52:54.734Z,23.67
2024-03-14T03:55:22.598Z,22.33
2024-03-14T03:57:49.995Z,22.00
2024-03-14T04:00:34.321Z,22.93
2024-03-14T04:03:09.182Z,22.23
2024-03-14T04:05:37.918Z,22.93
2024-03-14T04:08:08.473Z,24.43
2024-03-14T04:10:39.222Z,21.63
2024-03-14T04:13:06.955Z,24.07
2024-03-14T04:15:35.307Z,23.40
2024-03-14T04:18:06.297Z,22.70
2024-03-14T04:20:35.409Z,21.93
2024-03-14T04:23:02.479Z,23.90
2024-03-14T04:25:29.511Z,23.60
2024-03-14T04:27:56.494Z,25.20
2024-03-14T04:30:24.578Z,24.07
2024-03-14T04:32:53.222Z,25.20
2024-03-14T04:35:23.288Z,24.33
2024-03-14T04:37:53.464Z,26.00
2024-03-14T04:40:21.568Z,24.10
2024-03-14T04:42:56.788Z,24.77
2024-03-14T04:45:26.084Z,25.00
2024-03-14T04:47:53.417Z,24.27
2024-03-14T04:50:20.682Z,24.73
2024-03-14T04:52:48.019Z,25.37
2024-03-14T04:55:15.837Z,24.83
2024-03-14T04:57:44.834Z,25.70
2024-03-14T05:00:22.954Z,25.03
2024-03-14T05:02:51.939Z,24.93
2024-03-14T05:05:19.843Z,24.87
2024-03-14T05:07:46.973Z,23.77
2024-03-14T05:10:15.822Z,24.27
2024-03-14T05:12:44.379Z,25.87
2024-03-14T05:15:11.866Z,25.20
2024-03-14T05:17:43.016Z,23.93
2024-03-14T05:20:12.134Z,24.40
2024-03-14T05:22:39.861Z,25.03
2024-03-14T05:25:08.123Z,24.17
2024-03-14T05:27:35.149Z,24.03
2024-03-14T05:30:02.823Z,23.90
2024-03-14T05:32:29.985Z,25.93
2024-03-14T05:35:00.943Z,28.03
2024-03-14T05:37:29.239Z,25.73
2024-03-14T05:39:58.129Z,25.27
2024-03-14T05:42:25.636Z,26.37
2024-03-14T05:44:56.881Z,25.77
2024-03-14T05:47:25.839Z,25.70
2024-03-14T05:49:52.825Z,25.67
2024-03-14T05:52:20.181Z,24.90
2024-03-14T05:54:47.246Z,26.53
2024-03-14T05:57:16.118Z,25.43
2024-03-14T05:59:43.704Z,24.70
2024-03-14T06:02:10.973Z,24.67
2024-03-14T06:04:38.650Z,24.87
2024-03-14T06:07:05.572Z,25.13
2024-03-14T06:09:43.250Z,24.50
2024-03-14T06:12:11.087Z,24.37
2024-03-14T06:14:40.506Z,22.97
2024-03-14T06:17:07.743Z,24.63
2024-03-14T06:19:34.765Z,22.90
2024-03-14T06:22:01.733Z,22.13
2024-03-14T06:24:29.714Z,23.77
2024-03-14T06:26:57.064Z,23.37
2024-03-14T06:29:24.486Z,23.40
2024-03-14T06:31:51.914Z,23.37
2024-03-14T06:34:19.072Z,22.10
2024-03-14T06:36:46.236Z,20.87
2024-03-14T06:39:13.426Z,22.27
2024-03-14T06:41:40.537Z,21.20
2024-03-14T06:44:08.700Z,21.83
2024-03-14T06:46:37.321Z,21.53
2024-03-14T06:49:13.715Z,21.77
2024-03-14T06:51:44.272Z,22.63
2024-03-14T06:54:14.542Z,21.77
2024-03-14T06:56:42.045Z,21.73
2024-03-14T06:59:14.231Z,21.27
2024-03-14T07:01:41.786Z,21.80
2024-03-14T07:04:10.106Z,23.20
2024-03-14T07:06:37.469Z,24.23
2024-03-14T07:09:10.540Z,22.20
2024-03-14T07:11:38.370Z,23.07
2024-03-14T07:14:06.020Z,21.83
2024-03-14T07:16:34.679Z,23.27
2024-03-14T07:19:02.038Z,21.93
2024-03-14T07:21:29.981Z,24.83
2024-03-14T07:23:57.493Z,22.57
2024-03-14T07:26:25.304Z,21.90
2024-03-14T07:28:54.830Z,21.30
2024-03-14T07:31:22.361Z,21.30
2024-03-14T07:33:50.045Z,19.77
2024-03-14T07:36:17.721Z,19.37
2024-03-14T07:38:45.536Z,20.60
2024-03-14T07:41:12.680Z,20.23
2024-03-14T07:43:40.315Z,19.60
2024-03-14T07:46:09.426Z,19.40
2024-03-14T07:48:39.290Z,20.33
2024-03-14T07:51:08.913Z,20.03
2024-03-14T07:53:36.145Z,19.53
2024-03-14T07:56:05.458Z,20.20
2024-03-14T07:58:33.374Z,20.20
2024-03-14T08:01:02.068Z,20.60
2024-03-14T08:03:30.326Z,19.17
2024-03-14T08:05:57.360Z,19.13
2024-03-14T08:08:26.769Z,18.80
2024-03-14T08:10:54.364Z,20.33
2024-03-14T08:13:25.557Z,20.77
2024-03-14T08:15:56.541Z,20.83
2024-03-14T08:18:24.577Z,20.77
2024-03-14T08:20:57.508Z,20.90
2024-03-14T08:23:25.111Z,21.23
2024-03-14T08:25:52.107Z,21.57
2024-03-14T08:28:19.206Z,23.87
2024-03-14T08:30:46.616Z,24.03
2024-03-14T08:33:15.085Z,22.83
2024-03-14T08:35:44.540Z,23.63
2024-03-14T08:38:15.669Z,22.97
2024-03-14T08:40:43.933Z,23.77
2024-03-14T08:43:13.804Z,22.87
2024-03-14T08:45:41.755Z,23.73
2024-03-14T08:48:09.537Z,24.43
2024-03-14T08:50:37.425Z,23.73
2024-03-14T08:53:04.610Z,24.47
2024-03-14T08:55:34.659Z,24.30
2024-03-14T08:58:04.414Z,23.87
2024-03-14T09:00:32.665Z,23.63
2024-03-14T09:03:02.802Z,24.57
2024-03-14T09:05:30.880Z,23.87
2024-03-14T09:07:57.979Z,23.50
2024-03-14T09:10:26.531Z,23.90
2024-03-14T09:12:54.426Z,24.70
2024-03-14T09:15:23.518Z,24.30
2024-03-14T09:17:51.939Z,22.90
2024-03-14T09:20:21.608Z,22.97
2024-03-14T09:22:56.974Z,23.30
2024-03-14T09:25:25.869Z,23.00
2024-03-14T09:27:53.607Z,22.27
2024-03-14T09:30:23.412Z,21.83
2024-03-14T09:32:52.419Z,21.90
2024-03-14T09:35:27.888Z,21.90
2024-03-14T09:37:56.205Z,22.77
2024-03-14T09:40:24.796Z,20.93
2024-03-14T09:43:02.562Z,21.07
2024-03-14T09:45:31.291Z,22.13
2024-03-14T09:47:59.075Z,20.77
2024-03-14T09:50:28.241Z,22.53
2024-03-14T09:52:56.959Z,20.97
2024-03-14T09:55:25.448Z,22.27
2024-03-14T09:57:54.669Z,22.17
2024-03-14T10:00:23.094Z,21.07
2024-03-14T10:02:50.944Z,21.97
2024-03-14T10:05:20.327Z,20.30
2024-03-14T10:07:48.989Z,20.43
2024-03-14T10:10:17.029Z,21.57
2024-03-14T10:12:54.764Z,20.17
2024-03-14T10:15:23.207Z,20.33
2024-03-14T10:17:53.313Z,19.20
2024-03-14T10:20:21.258Z,20.17
2024-03-14T10:22:50.465Z,18.90
2024-03-14T10:25:24.483Z,18.47
2024-03-14T10:28:06.129Z,17.77
2024-03-14T10:30:38.968Z,17.47
2024-03-14T10:33:11.458Z,17.13
2024-03-14T10:35:40.414Z,17.53
2024-03-14T10:38:12.630Z,16.80
2024-03-14T10:40:43.365Z,17.60
2024-03-14T10:43:15.715Z,16.90
2024-03-14T10:45:43.798Z,15.97
2024-03-14T10:48:12.040Z,15.70
2024-03-14T10:50:39.307Z,15.30
2024-03-14T10:53:09.201Z,14.63
2024-03-14T10:55:36.836Z,15.03
2024-03-14T10:58:06.714Z,14.20
2024-03-14T11:00:35.827Z,13.43
2024-03-14T11:03:05.230Z,14.00
2024-03-14T11:05:33.458Z,14.03
2024-03-14T11:08:04.884Z,13.97
2024-03-14T11:10:40.300Z,13.80
2024-03-14T11:13:31.988Z,13.80
2024-03-14T11:16:00.766Z,13.13
2024-03-14T11:18:38.876Z,12.53
2024-03-14T11:21:08.561Z,12.97
2024-03-14T11:23:38.332Z,13.30
2024-03-14T11:26:13.916Z,12.60
2024-03-14T11:28:42.783Z,12.70
2024-03-14T11:31:09.920Z,12.03
2024-03-14T11:33:37.020Z,12.13
2024-03-14T11:36:06.234Z,11.60
2024-03-14T11:38:35.236Z,11.77
2024-03-14T11:41:04.315Z,11.30
2024-03-14T11:43:35.147Z,11.03
2024-03-14T11:46:06.531Z,10.87
2024-03-14T11:48:35.298Z,10.47
2024-03-14T11:51:03.258Z,10.60
2024-03-14T11:53:33.354Z,9.73
2024-03-14T11:56:07.412Z,9.40
2024-03-14T11:58:43.365Z,8.97
2024-03-14T12:01:21.910Z,9.80
2024-03-14T12:03:57.519Z,9.13
2024-03-14T12:06:27.126Z,9.13
2024-03-14T12:08:54.355Z,8.03
2024-03-14T12:11:22.778Z,8.00
2024-03-14T12:13:50.073Z,7.87
2024-03-14T12:16:19.755Z,8.03
2024-03-14T12:18:56.145Z,8.40
2024-03-14T12:21:23.170Z,7.83
2024-03-14T12:23:56.873Z,7.23
2024-03-14T12:26:24.441Z,7.20
2024-03-14T12:28:52.450Z,7.80
2024-03-14T12:31:21.263Z,8.00
2024-03-14T12:33:48.659Z,7.80
2024-03-14T12:36:19.231Z,7.90
2024-03-14T12:38:52.159Z,6.47
2024-03-14T12:41:20.244Z,7.60
2024-03-14T12:43:48.945Z,7.18
2024-03-14T12:46:19.300Z,7.43
2024-03-14T12:48:47.635Z,6.73
2024-03-14T12:51:25.975Z,7.32
2024-03-14T12:53:58.338Z,6.70
2024-03-14T12:56:26.543Z,6.77
2024-03-14T12:58:58.362Z,6.35
2024-03-14T13:01:36.006Z,6.60
2024-03-14T13:04:08.502Z,6.13
2024-03-14T13:06:36.623Z,4.87
2024-03-14T13:09:08.280Z,4.80
2024-03-14T13:11:35.462Z,4.33
2024-03-14T13:14:17.036Z,4.23
2024-03-14T13:16:45.681Z,4.63
2024-03-14T13:19:14.565Z,4.50
2024-03-14T13:21:45.287Z,4.47
2024-03-14T13:24:14.853Z,3.97
2024-03-14T13:26:42.363Z,4.50
2024-03-14T13:29:12.162Z,4.20
2024-03-14T13:31:39.226Z,3.80
2024-03-14T13:34:07.583Z,4.27
2024-03-14T13:36:38.068Z,4.20
2024-03-14T13:39:08.369Z,5.00
2024-03-14T13:41:36.451Z,4.50
2024-03-14T13:44:03.492Z,4.65
2024-03-14T13:46:34.063Z,4.40
2024-03-14T13:49:13.206Z,4.63
2024-03-14T13:51:40.880Z,4.90
2024-03-14T13:54:08.319Z,5.13
2024-03-14T13:56:35.545Z,5.10
2024-03-14T13:59:02.652Z,5.63
2024-03-14T14:01:34.092Z,6.20
2024-03-14T14:04:03.500Z,5.03
2024-03-14T14:06:33.960Z,6.22
2024-03-14T14:09:01.749Z,5.68
2024-03-14T14:11:31.216Z,5.85
2024-03-14T14:13:58.740Z,5.32
2024-03-14T14:16:25.725Z,5.45
2024-03-14T14:18:52.765Z,5.70
2024-03-14T14:21:20.015Z,5.07
2024-03-14T14:23:47.025Z,4.95
2024-03-14T14:26:14.397Z,5.25
2024-03-14T14:28:43.851Z,5.50
2024-03-14T14:31:15.450Z,5.50
2024-03-14T14:33:42.738Z,4.90
2024-03-14T14:36:09.908Z,4.70
2024-03-14T14:38:40.010Z,4.20
2024-03-14T14:41:09.143Z,4.57
2024-03-14T14:43:36.255Z,4.00
2024-03-14T14:46:03.543Z,3.90
2024-03-14T14:48:30.729Z,3.53
2024-03-14T14:50:57.861Z,3.50
2024-03-14T14:53:24.897Z,3.58
2024-03-14T14:55:52.772Z,3.67
2024-03-14T14:58:23.421Z,4.07
2024-03-14T15:00:50.597Z,4.15
2024-03-14T15:03:19.074Z,4.05
2024-03-14T15:05:46.414Z,4.00
2024-03-14T15:08:14.397Z,4.10
2024-03-14T15:10:42.222Z,3.80
2024-03-14T15:13:10.042Z,4.03
2024-03-14T15:15:39.786Z,3.85
2024-03-14T15:18:07.087Z,3.65
2024-03-14T15:20:34.279Z,3.40
2024-03-14T15:23:01.404Z,3.70
2024-03-14T15:25:28.367Z,3.55
2024-03-14T15:27:56.839Z,3.27
2024-03-14T15:30:25.095Z,3.27
2024-03-14T15:32:52.416Z,3.37
2024-03-14T15:35:19.637Z,3.00
2024-03-14T15:37:46.638Z,3.20
2024-03-14T15:40:16.714Z,3.00
2024-03-14T15:42:44.443Z,3.20
2024-03-14T15:45:18.086Z,3.17
2024-03-14T15:47:49.771Z,2.60
2024-03-14T15:50:19.189Z,2.70
2024-03-14T15:52:46.303Z,2.70
2024-03-14T15:55:15.699Z,2.77
2024-03-14T15:57:46.667Z,2.60
2024-03-14T16:00:14.888Z,3.00
2024-03-14T16:02:44.401Z,2.60
2024-03-14T16:05:17.000Z,2.60
2024-03-14T16:07:46.658Z,2.30
2024-03-14T16:10:14.023Z,2.10
2024-03-14T16:12:41.323Z,2.30
2024-03-14T16:15:12.776Z,2.20
2024-03-14T16:17:40.504Z,2.00
2024-03-14T16:20:33.408Z,1.70
2024-03-14T16:23:03.333Z,1.80
2024-03-14T16:25:35.803Z,1.13
2024-03-14T16:28:04.725Z,1.20
2024-03-14T16:30:32.300Z,1.50
2024-03-14T16:32:59.581Z,1.60
2024-03-14T16:35:30.029Z,1.40
2024-03-14T16:38:00.408Z,1.90
2024-03-14T16:40:28.420Z,2.30
2024-03-14T16:42:56.003Z,2.43
2024-03-14T16:45:24.166Z,2.80
2024-03-14T16:47:51.360Z,2.87
2024-03-14T16:50:18.555Z,3.20
2024-03-14T16:52:45.930Z,3.00
2024-03-14T16:55:16.735Z,3.37
2024-03-14T16:57:43.937Z,3.80
2024-03-14T17:00:20.309Z,3.30
2024-03-14T17:02:50.494Z,3.47
2024-03-14T17:05:21.037Z,3.33
2024-03-14T17:07:48.561Z,2.90
2024-03-14T17:10:17.781Z,3.00
2024-03-14T17:12:45.498Z,3.20
2024-03-14T17:15:12.802Z,3.47
2024-03-14T17:17:40.867Z,3.27
2024-03-14T17:20:12.298Z,3.20
2024-03-14T17:22:42.887Z,3.30
2024-03-14T17:25:13.838Z,3.43
2024-03-14T17:27:41.799Z,3.00
2024-03-14T17:30:09.811Z,3.03
2024-03-14T17:32:38.143Z,2.90
2024-03-14T17:35:06.056Z,2.70
2024-03-14T17:37:34.406Z,2.30
2024-03-14T17:40:14.521Z,2.20
2024-03-14T17:42:48.887Z,1.60
2024-03-14T17:45:18.971Z,1.70
2024-03-14T17:47:50.535Z,1.20
2024-03-14T17:50:17.682Z,0.80
2024-03-14T17:52:50.283Z,0.70
2024-03-14T17:55:17.997Z,0.50
2024-03-14T17:57:50.590Z,0.40
2024-03-14T18:00:19.042Z,0.27
2024-03-14T18:02:47.907Z,0.30
2024-03-14T18:05:15.887Z,0.30
2024-03-14T18:07:47.676Z,0.30
2024-03-14T18:10:15.760Z,0.30
2024-03-14T18:12:47.927Z,0.20
2024-03-14T18:15:19.838Z,0.20
2024-03-14T18:17:48.660Z,0.20
2024-03-14T18:20:16.781Z,0.30
2024-03-14T18:22:44.145Z,0.30
2024-03-14T18:25:18.775Z,0.30
2024-03-14T18:27:49.028Z,0.30
2024-03-14T18:30:20.188Z,0.20
2024-03-14T18:32:48.962Z,0.23
2024-03-14T18:35:21.333Z,0.27
2024-03-14T18:37:51.320Z,0.30
2024-03-14T18:40:27.372Z,0.20
2024-03-14T18:42:58.735Z,0.30
2024-03-14T18:45:27.334Z,0.20
2024-03-14T18:47:55.093Z,0.20
2024-03-14T18:50:23.237Z,0.20
2024-03-14T18:52:53.264Z,0.30
2024-03-14T18:55:22.154Z,0.20
2024-03-14T18:57:49.913Z,0.30
2024-03-14T19:00:20.848Z,0.20
2024-03-14T19:02:49.836Z,0.40
2024-03-14T19:05:18.157Z,0.20
2024-03-14T19:07:45.208Z,0.20
2024-03-14T19:10:12.302Z,0.40
2024-03-14T19:12:39.351Z,0.30
2024-03-14T19:15:07.141Z,0.30
2024-03-14T19:17:34.628Z,0.30
2024-03-14T19:20:03.698Z,0.40
2024-03-14T19:22:31.709Z,0.30
2024-03-14T19:24:59.904Z,0.40
2024-03-14T19:27:27.066Z,0.40
2024-03-14T19:29:55.321Z,0.47
2024-03-14T19:32:22.487Z,0.40
2024-03-14T19:34:49.775Z,0.50
2024-03-14T19:37:17.544Z,0.40
2024-03-14T19:39:45.000Z,0.40
2024-03-14T19:42:13.107Z,0.27
2024-03-14T19:44:40.410Z,0.47
2024-03-14T19:47:09.133Z,0.50
2024-03-14T19:49:36.294Z,0.40
2024-03-14T19:52:04.059Z,0.40
2024-03-14T19:54:31.358Z,0.50
2024-03-14T19:56:59.858Z,0.40
2024-03-14T19:59:27.991Z,0.60
2024-03-14T20:01:58.145Z,0.50
2024-03-14T20:04:26.113Z,0.50
2024-03-14T20:06:53.501Z,0.40
2024-03-14T20:09:21.200Z,0.50
2024-03-14T20:11:48.650Z,0.40
2024-03-14T20:14:16.659Z,0.40
2024-03-14T20:16:45.168Z,0.53
2024-03-14T20:19:12.285Z,0.60
2024-03-14T20:21:39.338Z,0.50
2024-03-14T20:24:08.445Z,0.60
2024-03-14T20:26:35.598Z,0.60
2024-03-14T20:29:02.667Z,0.60
2024-03-14T20:31:29.776Z,0.50
2024-03-14T20:33:58.136Z,0.80
2024-03-14T20:36:25.655Z,0.80
2024-03-14T20:39:05.968Z,0.60
2024-03-14T20:41:33.820Z,0.60
2024-03-14T20:44:00.836Z,0.60
2024-03-14T20:46:28.182Z,0.80
2024-03-14T20:48:55.457Z,0.53
2024-03-14T20:51:25.181Z,0.57
2024-03-14T20:53:52.870Z,0.70
2024-03-14T20:56:34.653Z,0.70
2024-03-14T20:59:02.080Z,0.53
2024-03-14T21:01:29.308Z,0.53
2024-03-14T21:03:56.649Z,0.60
2024-03-14T21:06:26.541Z,0.60
2024-03-14T21:08:58.067Z,0.60
2024-03-14T21:11:27.396Z,0.60
2024-03-14T21:13:54.479Z,0.60
2024-03-14T21:16:23.322Z,0.50
2024-03-14T21:18:55.331Z,0.50
2024-03-14T21:21:23.441Z,0.47
2024-03-14T21:23:50.489Z,0.50
2024-03-14T21:26:17.421Z,0.53
2024-03-14T21:28:44.917Z,0.57
2024-03-14T21:31:12.807Z,0.50
2024-03-14T21:33:42.594Z,0.50
2024-03-14T21:36:10.660Z,0.50
2024-03-14T21:38:37.835Z,0.50
2024-03-14T21:41:05.467Z,0.80
2024-03-14T21:43:32.551Z,0.60
2024-03-14T21:45:59.501Z,0.50
2024-03-14T21:48:27.616Z,0.77
2024-03-14T21:50:55.068Z,0.50
2024-03-14T21:53:22.027Z,0.60
2024-03-14T21:55:50.464Z,0.77
2024-03-14T21:58:17.455Z,0.70
2024-03-14T22:00:44.971Z,0.60
2024-03-14T22:03:12.789Z,0.50
2024-03-14T22:05:39.929Z,0.60
2024-03-14T22:08:06.908Z,0.50
2024-03-14T22:10:33.946Z,0.60
2024-03-14T22:13:01.819Z,0.50
2024-03-14T22:15:28.915Z,0.60
2024-03-14T22:17:56.579Z,0.60
2024-03-14T22:20:26.396Z,0.50
2024-03-14T22:22:53.416Z,0.60
2024-03-14T22:25:20.499Z,0.50
2024-03-14T22:27:47.858Z,0.60
2024-03-14T22:30:15.217Z,0.60
2024-03-14T22:32:42.604Z,0.70
2024-03-14T22:35:11.363Z,0.57
2024-03-14T22:37:38.543Z,0.80
2024-03-14T22:40:06.361Z,0.60
2024-03-14T22:42:33.556Z,0.70
2024-03-14T22:45:01.275Z,0.80
2024-03-14T22:47:28.812Z,0.70
2024-03-14T22:49:57.531Z,0.60
2024-03-14T22:52:24.531Z,0.40
2024-03-14T22:54:51.531Z,0.50
2024-03-14T22:57:18.621Z,0.50
2024-03-14T22:59:45.647Z,0.50
2024-03-14T23:02:13.526Z,0.50
2024-03-14T23:04:41.967Z,0.50
2024-03-14T23:07:09.043Z,0.60
2024-03-14T23:09:36.481Z,0.63
2024-03-14T23:12:04.141Z,0.67
2024-03-14T23:14:32.865Z,0.80
2024-03-14T23:16:59.824Z,0.90
2024-03-14T23:19:26.987Z,0.70
2024-03-14T23:21:53.972Z,0.70
2024-03-14T23:24:20.928Z,0.67
2024-03-14T23:26:48.557Z,0.80
2024-03-14T23:29:15.523Z,0.90
2024-03-14T23:31:42.773Z,0.93
2024-03-14T23:34:10.430Z,0.80
2024-03-14T23:36:38.256Z,1.07
2024-03-14T23:39:07.273Z,0.90
2024-03-14T23:41:34.753Z,1.00
2024-03-14T23:44:02.167Z,1.00
2024-03-14T23:46:30.132Z,1.00
2024-03-14T23:48:57.482Z,0.90
2024-03-14T23:51:24.947Z,1.10
2024-03-14T23:53:51.978Z,0.80
2024-03-14T23:56:19.743Z,1.00
2024-03-14T23:58:46.798Z,1.20
